createdAt,value
2022-11-05T16:00:44.213Z,17.10
2022-11-05T16:03:28.459Z,16.50
2022-11-05T16:06:02.208Z,7.70
2022-11-05T16:08:30.087Z,6.90
2022-11-05T16:11:05.428Z,6.20
2022-11-05T16:13:43.219Z,4.80
2022-11-05T16:16:23.567Z,7.10
2022-11-05T16:18:57.230Z,5.10
2022-11-05T16:21:25.235Z,6.60
2022-11-05T16:23:58.232Z,7.60
2022-11-05T16:29:37.119Z,5.00
2022-11-05T16:32:29.520Z,5.70
2022-11-05T16:34:59.962Z,5.40
2022-11-05T16:37:34.203Z,5.20
2022-11-05T16:40:02.121Z,6.40
2022-11-05T16:42:44.208Z,6.40
2022-11-05T16:45:13.869Z,6.20
2022-11-05T16:47:48.228Z,3.90
2022-11-05T16:50:23.210Z,4.10
2022-11-05T16:52:57.260Z,4.40
2022-11-05T16:55:24.925Z,3.20
2022-11-05T16:58:06.653Z,3.90
2022-11-05T17:00:40.736Z,3.10
2022-11-05T17:03:14.644Z,4.10
2022-11-05T17:05:48.233Z,3.50
2022-11-05T17:08:23.470Z,3.60
2022-11-05T17:10:52.057Z,3.50
2022-11-05T17:13:28.622Z,3.80
2022-11-05T17:15:55.875Z,3.90
2022-11-05T17:18:29.374Z,4.10
2022-11-05T17:20:57.114Z,3.10
2022-11-05T17:23:33.190Z,2.70
2022-11-05T17:26:03.424Z,3.30
2022-11-05T17:28:37.257Z,3.60
2022-11-05T17:31:15.331Z,3.50
2022-11-05T17:33:42.277Z,3.40
2022-11-05T17:36:19.201Z,3.10
2022-11-05T17:38:46.051Z,2.80
2022-11-05T17:41:15.097Z,2.90
2022-11-05T17:43:48.211Z,3.20
2022-11-05T17:46:18.972Z,2.80
2022-11-05T17:48:53.328Z,3.30
2022-11-05T17:51:28.267Z,3.60
2022-11-05T17:53:56.296Z,3.10
2022-11-05T17:56:34.492Z,3.60
2022-11-05T17:59:09.878Z,3.40
2022-11-05T18:01:48.517Z,3.30
2022-11-05T18:04:17.857Z,3.30
2022-11-05T18:06:44.820Z,4.20
2022-11-05T18:09:19.212Z,3.60
2022-11-05T18:11:46.617Z,3.10
2022-11-05T18:14:24.128Z,3.60
2022-11-05T18:16:59.287Z,3.60
2022-11-05T18:19:34.135Z,4.00
2022-11-05T18:22:10.360Z,3.90
